sensor_id;sensor_type;location;lat;lon;timestamp;pressure;altitude;pressure_sealevel;temperature;humidity
47897;BME280;39629;51.400;5.494;2022-11-27T00:01:38;102387.06;;;4.66;100.00
47897;BME280;39629;51.400;5.494;2022-11-27T00:06:42;102370.84;;;4.53;100.00
47897;BME280;39629;51.400;5.494;2022-11-27T00:11:44;102368.78;;;4.46;100.00
47897;BME280;39629;51.400;5.494;2022-11-27T00:16:45;102370.88;;;4.35;100.00
47897;BME280;39629;51.400;5.494;2022-11-27T00:21:48;102373.81;;;4.23;100.00
47897;BME280;39629;51.400;5.494;2022-11-27T00:26:50;102368.81;;;4.10;100.00
47897;BME280;39629;51.400;5.494;2022-11-27T00:31:52;102350.22;;;4.02;100.00
47897;BME280;39629;51.400;5.494;2022-11-27T00:36:55;102344.94;;;3.83;100.00
47897;BME280;39629;51.400;5.494;2022-11-27T00:41:56;102349.03;;;3.78;100.00
47897;BME280;39629;51.400;5.494;2022-11-27T00:46:58;102333.25;;;3.74;100.00
47897;BME280;39629;51.400;5.494;2022-11-27T00:52:01;102339.78;;;3.66;100.00
47897;BME280;39629;51.400;5.494;2022-11-27T00:57:03;102334.28;;;3.60;100.00
47897;BME280;39629;51.400;5.494;2022-11-27T01:02:05;102332.28;;;3.54;100.00
47897;BME280;39629;51.400;5.494;2022-11-27T01:07:07;102321.59;;;3.50;100.00
47897;BME280;39629;51.400;5.494;2022-11-27T01:12:09;102308.81;;;3.36;100.00
47897;BME280;39629;51.400;5.494;2022-11-27T01:17:11;102303.47;;;3.33;100.00
47897;BME280;39629;51.400;5.494;2022-11-27T01:22:13;102296.31;;;3.29;100.00
47897;BME280;39629;51.400;5.494;2022-11-27T01:27:15;102305.75;;;3.27;100.00
47897;BME280;39629;51.400;5.494;2022-11-27T01:32:17;102320.22;;;3.22;100.00
47897;BME280;39629;51.400;5.494;2022-11-27T01:37:19;102304.44;;;3.19;100.00
47897;BME280;39629;51.400;5.494;2022-11-27T01:42:21;102286.66;;;3.27;100.00
47897;BME280;39629;51.400;5.494;2022-11-27T01:47:30;102279.34;;;3.19;100.00
47897;BME280;39629;51.400;5.494;2022-11-27T01:52:36;102276.53;;;3.33;100.00
47897;BME280;39629;51.400;5.494;2022-11-27T01:57:41;102281.97;;;3.37;100.00
47897;BME280;39629;51.400;5.494;2022-11-27T02:02:44;102237.81;;;3.39;100.00
47897;BME280;39629;51.400;5.494;2022-11-27T02:07:47;102216.00;;;3.37;100.00
47897;BME280;39629;51.400;5.494;2022-11-27T02:12:56;102216.09;;;3.38;100.00
47897;BME280;39629;51.400;5.494;2022-11-27T02:18:05;102215.34;;;3.41;100.00
47897;BME280;39629;51.400;5.494;2022-11-27T02:23:35;102203.59;;;3.49;100.00
47897;BME280;39629;51.400;5.494;2022-11-27T02:28:56;102200.41;;;3.55;100.00
47897;BME280;39629;51.400;5.494;2022-11-27T02:34:05;102187.44;;;3.56;100.00
47897;BME280;39629;51.400;5.494;2022-11-27T02:39:14;102200.53;;;3.58;100.00
47897;BME280;39629;51.400;5.494;2022-11-27T02:44:20;102189.38;;;3.61;100.00
47897;BME280;39629;51.400;5.494;2022-11-27T02:49:24;102179.41;;;3.70;100.00
47897;BME280;39629;51.400;5.494;2022-11-27T02:54:29;102168.94;;;3.68;100.00
47897;BME280;39629;51.400;5.494;2022-11-27T02:59:32;102169.06;;;3.71;100.00
47897;BME280;39629;51.400;5.494;2022-11-27T03:04:38;102178.94;;;3.79;100.00
47897;BME280;39629;51.400;5.494;2022-11-27T03:09:44;102190.25;;;3.79;100.00
47897;BME280;39629;51.400;5.494;2022-11-27T03:14:48;102189.59;;;3.83;100.00
47897;BME280;39629;51.400;5.494;2022-11-27T03:19:52;102187.06;;;3.85;100.00
47897;BME280;39629;51.400;5.494;2022-11-27T03:24:55;102180.19;;;3.87;100.00
47897;BME280;39629;51.400;5.494;2022-11-27T03:30:00;102174.22;;;3.89;100.00
47897;BME280;39629;51.400;5.494;2022-11-27T03:35:04;102173.63;;;3.95;100.00
47897;BME280;39629;51.400;5.494;2022-11-27T03:40:09;102173.00;;;4.01;100.00
47897;BME280;39629;51.400;5.494;2022-11-27T03:45:16;102158.47;;;4.06;100.00
47897;BME280;39629;51.400;5.494;2022-11-27T03:50:32;102145.53;;;4.07;100.00
47897;BME280;39629;51.400;5.494;2022-11-27T03:55:42;102141.47;;;4.14;100.00
47897;BME280;39629;51.400;5.494;2022-11-27T04:00:49;102137.84;;;4.11;100.00
47897;BME280;39629;51.400;5.494;2022-11-27T04:05:53;102147.63;;;4.16;100.00
47897;BME280;39629;51.400;5.494;2022-11-27T04:10:54;102146.19;;;4.23;100.00
47897;BME280;39629;51.400;5.494;2022-11-27T04:16:00;102142.16;;;4.30;100.00
47897;BME280;39629;51.400;5.494;2022-11-27T04:21:02;102154.31;;;4.29;100.00
47897;BME280;39629;51.400;5.494;2022-11-27T04:26:04;102159.22;;;4.23;100.00
47897;BME280;39629;51.400;5.494;2022-11-27T04:31:07;102153.19;;;4.24;100.00
47897;BME280;39629;51.400;5.494;2022-11-27T04:36:09;102153.19;;;4.24;100.00
47897;BME280;39629;51.400;5.494;2022-11-27T04:41:10;102150.59;;;4.24;100.00
47897;BME280;39629;51.400;5.494;2022-11-27T04:46:13;102154.31;;;4.29;100.00
47897;BME280;39629;51.400;5.494;2022-11-27T04:51:15;102152.50;;;4.28;100.00
47897;BME280;39629;51.400;5.494;2022-11-27T04:56:17;102129.19;;;4.31;100.00
47897;BME280;39629;51.400;5.494;2022-11-27T05:01:20;102116.97;;;4.30;100.00
47897;BME280;39629;51.400;5.494;2022-11-27T05:06:21;102114.66;;;4.36;100.00
47897;BME280;39629;51.400;5.494;2022-11-27T05:11:24;102112.91;;;4.37;100.00
47897;BME280;39629;51.400;5.494;2022-11-27T05:16:27;102103.25;;;4.34;100.00
47897;BME280;39629;51.400;5.494;2022-11-27T05:21:29;102096.19;;;4.32;100.00
47897;BME280;39629;51.400;5.494;2022-11-27T05:26:31;102086.66;;;4.32;100.00
47897;BME280;39629;51.400;5.494;2022-11-27T05:31:35;102078.66;;;4.28;100.00
47897;BME280;39629;51.400;5.494;2022-11-27T05:36:37;102082.28;;;4.31;100.00
47897;BME280;39629;51.400;5.494;2022-11-27T05:41:41;102076.25;;;4.32;100.00
47897;BME280;39629;51.400;5.494;2022-11-27T05:46:44;102065.81;;;4.32;100.00
47897;BME280;39629;51.400;5.494;2022-11-27T05:51:46;102063.34;;;4.35;100.00
47897;BME280;39629;51.400;5.494;2022-11-27T05:56:47;102060.84;;;4.38;100.00
47897;BME280;39629;51.400;5.494;2022-11-27T06:01:50;102056.41;;;4.36;100.00
47897;BME280;39629;51.400;5.494;2022-11-27T06:06:52;102041.91;;;4.42;100.00
47897;BME280;39629;51.400;5.494;2022-11-27T06:11:53;102036.00;;;4.47;100.00
47897;BME280;39629;51.400;5.494;2022-11-27T06:16:56;102036.22;;;4.51;100.00
47897;BME280;39629;51.400;5.494;2022-11-27T06:21:58;102032.56;;;4.48;100.00
47897;BME280;39629;51.400;5.494;2022-11-27T06:26:59;102021.28;;;4.47;100.00
47897;BME280;39629;51.400;5.494;2022-11-27T06:32:03;102022.28;;;4.51;100.00
47897;BME280;39629;51.400;5.494;2022-11-27T06:37:04;102012.66;;;4.50;100.00
47897;BME280;39629;51.400;5.494;2022-11-27T06:42:06;102019.94;;;4.57;100.00
47897;BME280;39629;51.400;5.494;2022-11-27T06:47:09;102026.91;;;4.58;100.00
47897;BME280;39629;51.400;5.494;2022-11-27T06:52:10;102016.34;;;4.55;100.00
47897;BME280;39629;51.400;5.494;2022-11-27T06:57:12;102016.34;;;4.55;100.00
47897;BME280;39629;51.400;5.494;2022-11-27T07:02:15;102005.75;;;4.50;100.00
47897;BME280;39629;51.400;5.494;2022-11-27T07:07:16;102003.97;;;4.49;100.00
47897;BME280;39629;51.400;5.494;2022-11-27T07:12:18;102001.31;;;4.48;100.00
47897;BME280;39629;51.400;5.494;2022-11-27T07:17:21;101995.97;;;4.45;100.00
47897;BME280;39629;51.400;5.494;2022-11-27T07:22:22;101981.16;;;4.43;100.00
47897;BME280;39629;51.400;5.494;2022-11-27T07:27:24;101973.16;;;4.39;100.00
47897;BME280;39629;51.400;5.494;2022-11-27T07:32:28;101965.28;;;4.37;100.00
47897;BME280;39629;51.400;5.494;2022-11-27T07:37:29;101965.13;;;4.34;100.00
47897;BME280;39629;51.400;5.494;2022-11-27T07:42:31;101963.28;;;4.32;100.00
47897;BME280;39629;51.400;5.494;2022-11-27T07:47:34;101959.84;;;4.33;100.00
47897;BME280;39629;51.400;5.494;2022-11-27T07:52:36;101959.09;;;4.35;100.00
47897;BME280;39629;51.400;5.494;2022-11-27T07:57:38;101941.03;;;4.40;100.00
47897;BME280;39629;51.400;5.494;2022-11-27T08:02:43;101937.66;;;4.42;100.00
47897;BME280;39629;51.400;5.494;2022-11-27T08:07:44;101926.53;;;4.47;100.00
47897;BME280;39629;51.400;5.494;2022-11-27T08:12:46;101914.50;;;4.50;100.00
47897;BME280;39629;51.400;5.494;2022-11-27T08:17:49;101916.47;;;4.56;100.00
47897;BME280;39629;51.400;5.494;2022-11-27T08:22:50;101915.88;;;4.63;100.00
47897;BME280;39629;51.400;5.494;2022-11-27T08:27:52;101912.63;;;4.69;100.00
47897;BME280;39629;51.400;5.494;2022-11-27T08:32:55;101909.34;;;4.74;100.00
47897;BME280;39629;51.400;5.494;2022-11-27T08:37:57;101916.50;;;4.80;100.00
47897;BME280;39629;51.400;5.494;2022-11-27T08:42:58;101895.13;;;4.89;100.00
47897;BME280;39629;51.400;5.494;2022-11-27T08:48:01;101904.94;;;4.96;100.00
47897;BME280;39629;51.400;5.494;2022-11-27T08:53:03;101907.78;;;5.02;100.00
47897;BME280;39629;51.400;5.494;2022-11-27T08:58:04;101894.94;;;5.07;100.00
47897;BME280;39629;51.400;5.494;2022-11-27T09:03:09;101909.00;;;5.12;100.00
47897;BME280;39629;51.400;5.494;2022-11-27T09:08:11;101910.91;;;5.16;100.00
47897;BME280;39629;51.400;5.494;2022-11-27T09:13:19;101906.69;;;5.20;100.00
47897;BME280;39629;51.400;5.494;2022-11-27T09:18:22;101909.50;;;5.26;100.00
47897;BME280;39629;51.400;5.494;2022-11-27T09:23:23;101896.59;;;5.29;100.00
47897;BME280;39629;51.400;5.494;2022-11-27T09:28:26;101889.78;;;5.34;100.00
47897;BME280;39629;51.400;5.494;2022-11-27T09:33:30;101895.97;;;5.36;100.00
47897;BME280;39629;51.400;5.494;2022-11-27T09:38:33;101909.13;;;5.39;100.00
47897;BME280;39629;51.400;5.494;2022-11-27T09:43:40;101889.31;;;5.44;100.00
47897;BME280;39629;51.400;5.494;2022-11-27T09:48:48;101889.25;;;5.43;100.00
47897;BME280;39629;51.400;5.494;2022-11-27T09:53:56;101898.16;;;5.50;100.00
47897;BME280;39629;51.400;5.494;2022-11-27T09:59:01;101880.06;;;5.54;100.00
47897;BME280;39629;51.400;5.494;2022-11-27T10:04:04;101880.06;;;5.54;100.00
47897;BME280;39629;51.400;5.494;2022-11-27T10:09:11;101867.16;;;5.59;100.00
47897;BME280;39629;51.400;5.494;2022-11-27T10:14:30;101856.72;;;5.59;100.00
47897;BME280;39629;51.400;5.494;2022-11-27T10:19:44;101859.53;;;5.65;100.00
47897;BME280;39629;51.400;5.494;2022-11-27T10:24:59;101858.91;;;5.72;100.00
47897;BME280;39629;51.400;5.494;2022-11-27T10:30:08;101845.84;;;5.72;100.00
47897;BME280;39629;51.400;5.494;2022-11-27T10:35:16;101833.94;;;5.81;100.00
47897;BME280;39629;51.400;5.494;2022-11-27T10:40:22;101827.94;;;5.83;100.00
47897;BME280;39629;51.400;5.494;2022-11-27T10:45:31;101823.88;;;5.93;100.00
47897;BME280;39629;51.400;5.494;2022-11-27T10:50:39;101819.78;;;6.01;100.00
47897;BME280;39629;51.400;5.494;2022-11-27T10:55:53;101813.06;;;6.09;100.00
47897;BME280;39629;51.400;5.494;2022-11-27T11:01:04;101800.28;;;6.19;100.00
47897;BME280;39629;51.400;5.494;2022-11-27T11:06:14;101806.66;;;6.28;100.00
47897;BME280;39629;51.400;5.494;2022-11-27T11:11:24;101795.41;;;6.31;100.00
47897;BME280;39629;51.400;5.494;2022-11-27T11:16:27;101775.66;;;6.41;100.00
47897;BME280;39629;51.400;5.494;2022-11-27T11:21:32;101754.75;;;6.41;100.00
47897;BME280;39629;51.400;5.494;2022-11-27T11:26:37;101744.47;;;6.47;100.00
47897;BME280;39629;51.400;5.494;2022-11-27T11:31:39;101748.72;;;6.43;100.00
47897;BME280;39629;51.400;5.494;2022-11-27T11:36:53;101730.56;;;6.48;100.00
47897;BME280;39629;51.400;5.494;2022-11-27T11:41:55;101729.03;;;6.55;100.00
47897;BME280;39629;51.400;5.494;2022-11-27T11:46:57;101715.19;;;6.59;100.00
47897;BME280;39629;51.400;5.494;2022-11-27T11:52:11;101707.59;;;6.68;100.00
47897;BME280;39629;51.400;5.494;2022-11-27T11:57:49;101703.50;;;6.78;100.00
47897;BME280;39629;51.400;5.494;2022-11-27T12:03:04;101687.63;;;6.72;100.00
47897;BME280;39629;51.400;5.494;2022-11-27T12:08:28;101657.34;;;6.81;100.00
47897;BME280;39629;51.400;5.494;2022-11-27T12:13:43;101653.94;;;6.84;100.00
47897;BME280;39629;51.400;5.494;2022-11-27T12:18:59;101639.31;;;6.92;100.00
47897;BME280;39629;51.400;5.494;2022-11-27T12:24:08;101627.38;;;7.04;100.00
47897;BME280;39629;51.400;5.494;2022-11-27T12:29:27;101625.25;;;6.87;100.00
47897;BME280;39629;51.400;5.494;2022-11-27T12:34:42;101608.16;;;7.02;100.00
47897;BME280;39629;51.400;5.494;2022-11-27T12:39:59;101603.03;;;7.08;100.00
47897;BME280;39629;51.400;5.494;2022-11-27T12:45:13;101608.25;;;7.06;100.00
47897;BME280;39629;51.400;5.494;2022-11-27T12:50:19;101614.34;;;7.05;100.00
47897;BME280;39629;51.400;5.494;2022-11-27T12:55:29;101596.75;;;6.99;100.00
47897;BME280;39629;51.400;5.494;2022-11-27T13:00:36;101564.44;;;6.97;100.00
47897;BME280;39629;51.400;5.494;2022-11-27T13:05:45;101557.41;;;6.95;100.00
47897;BME280;39629;51.400;5.494;2022-11-27T13:10:52;101560.06;;;6.98;100.00
47897;BME280;39629;51.400;5.494;2022-11-27T13:15:57;101562.53;;;6.90;100.00
47897;BME280;39629;51.400;5.494;2022-11-27T13:21:04;101560.00;;;6.95;100.00
47897;BME280;39629;51.400;5.494;2022-11-27T13:26:18;101564.31;;;6.91;100.00
47897;BME280;39629;51.400;5.494;2022-11-27T13:31:24;101566.06;;;6.92;100.00
47897;BME280;39629;51.400;5.494;2022-11-27T13:36:33;101561.75;;;6.94;100.00
47897;BME280;39629;51.400;5.494;2022-11-27T13:41:39;101570.53;;;6.98;100.00
47897;BME280;39629;51.400;5.494;2022-11-27T13:46:44;101558.22;;;6.94;100.00
47897;BME280;39629;51.400;5.494;2022-11-27T13:51:48;101531.38;;;7.01;100.00
47897;BME280;39629;51.400;5.494;2022-11-27T13:56:51;101527.88;;;7.01;100.00
47897;BME280;39629;51.400;5.494;2022-11-27T14:01:55;101525.22;;;6.99;100.00
47897;BME280;39629;51.400;5.494;2022-11-27T14:06:59;101522.50;;;6.94;100.00
47897;BME280;39629;51.400;5.494;2022-11-27T14:12:20;101521.69;;;6.97;100.00
47897;BME280;39629;51.400;5.494;2022-11-27T14:17:25;101525.88;;;6.89;100.00
47897;BME280;39629;51.400;5.494;2022-11-27T14:22:34;101507.38;;;6.82;100.00
47897;BME280;39629;51.400;5.494;2022-11-27T14:27:37;101497.88;;;6.85;100.00
47897;BME280;39629;51.400;5.494;2022-11-27T14:32:40;101483.81;;;6.81;100.00
47897;BME280;39629;51.400;5.494;2022-11-27T14:37:42;101486.28;;;6.73;100.00
47897;BME280;39629;51.400;5.494;2022-11-27T14:42:45;101482.66;;;6.68;100.00
47897;BME280;39629;51.400;5.494;2022-11-27T14:47:49;101486.97;;;6.68;100.00
47897;BME280;39629;51.400;5.494;2022-11-27T14:52:52;101481.69;;;6.64;100.00
47897;BME280;39629;51.400;5.494;2022-11-27T14:57:56;101464.16;;;6.60;100.00
47897;BME280;39629;51.400;5.494;2022-11-27T15:03:07;101458.03;;;6.58;100.00
47897;BME280;39629;51.400;5.494;2022-11-27T15:08:09;101447.56;;;6.58;100.00
47897;BME280;39629;51.400;5.494;2022-11-27T15:13:20;101436.91;;;6.51;100.00
47897;BME280;39629;51.400;5.494;2022-11-27T15:18:23;101421.97;;;6.46;100.00
47897;BME280;39629;51.400;5.494;2022-11-27T15:23:28;101431.50;;;6.44;100.00
47897;BME280;39629;51.400;5.494;2022-11-27T15:28:36;101421.00;;;6.41;100.00
47897;BME280;39629;51.400;5.494;2022-11-27T15:33:38;101404.41;;;6.41;100.00
47897;BME280;39629;51.400;5.494;2022-11-27T15:38:40;101409.59;;;6.39;100.00
47897;BME280;39629;51.400;5.494;2022-11-27T15:43:43;101400.91;;;6.40;100.00
47897;BME280;39629;51.400;5.494;2022-11-27T15:48:44;101398.34;;;6.42;100.00
47897;BME280;39629;51.400;5.494;2022-11-27T15:53:46;101392.16;;;6.40;100.00
47897;BME280;39629;51.400;5.494;2022-11-27T15:58:49;101389.53;;;6.38;100.00
47897;BME280;39629;51.400;5.494;2022-11-27T16:03:51;101385.19;;;6.39;100.00
47897;BME280;39629;51.400;5.494;2022-11-27T16:08:54;101365.13;;;6.38;100.00
47897;BME280;39629;51.400;5.494;2022-11-27T16:13:57;101355.63;;;6.41;100.00
47897;BME280;39629;51.400;5.494;2022-11-27T16:19:00;101356.47;;;6.40;100.00
47897;BME280;39629;51.400;5.494;2022-11-27T16:24:05;101344.31;;;6.42;100.00
47897;BME280;39629;51.400;5.494;2022-11-27T16:29:08;101343.53;;;6.46;100.00
47897;BME280;39629;51.400;5.494;2022-11-27T16:34:10;101329.53;;;6.44;100.00
47897;BME280;39629;51.400;5.494;2022-11-27T16:39:15;101331.19;;;6.41;100.00
47897;BME280;39629;51.400;5.494;2022-11-27T16:44:19;101317.13;;;6.36;100.00
47897;BME280;39629;51.400;5.494;2022-11-27T16:49:20;101310.97;;;6.32;100.00
47897;BME280;39629;51.400;5.494;2022-11-27T16:54:23;101308.41;;;6.35;100.00
47897;BME280;39629;51.400;5.494;2022-11-27T16:59:27;101290.06;;;6.32;100.00
47897;BME280;39629;51.400;5.494;2022-11-27T17:04:29;101294.47;;;6.35;100.00
47897;BME280;39629;51.400;5.494;2022-11-27T17:09:31;101283.28;;;6.40;100.00
47897;BME280;39629;51.400;5.494;2022-11-27T17:14:34;101278.88;;;6.39;100.00
47897;BME280;39629;51.400;5.494;2022-11-27T17:19:36;101280.41;;;6.29;100.00
47897;BME280;39629;51.400;5.494;2022-11-27T17:24:38;101276.81;;;6.24;100.00
47897;BME280;39629;51.400;5.494;2022-11-27T17:29:42;101266.34;;;6.24;100.00
47897;BME280;39629;51.400;5.494;2022-11-27T17:34:43;101262.09;;;6.28;100.00
47897;BME280;39629;51.400;5.494;2022-11-27T17:39:45;101265.50;;;6.24;100.00
47897;BME280;39629;51.400;5.494;2022-11-27T17:44:48;101253.25;;;6.23;100.00
47897;BME280;39629;51.400;5.494;2022-11-27T17:49:50;101235.78;;;6.20;100.00
47897;BME280;39629;51.400;5.494;2022-11-27T17:54:52;101231.38;;;6.18;100.00
47897;BME280;39629;51.400;5.494;2022-11-27T17:59:56;101221.88;;;6.21;100.00
47897;BME280;39629;51.400;5.494;2022-11-27T18:04:58;101218.50;;;6.27;100.00
47897;BME280;39629;51.400;5.494;2022-11-27T18:09:59;101208.00;;;6.24;100.00
47897;BME280;39629;51.400;5.494;2022-11-27T18:15:03;101211.41;;;6.21;100.00
47897;BME280;39629;51.400;5.494;2022-11-27T18:20:06;101200.88;;;6.17;100.00
47897;BME280;39629;51.400;5.494;2022-11-27T18:25:07;101199.06;;;6.12;100.00
47897;BME280;39629;51.400;5.494;2022-11-27T18:30:12;101190.28;;;6.10;100.00
47897;BME280;39629;51.400;5.494;2022-11-27T18:35:14;101180.69;;;6.09;100.00
47897;BME280;39629;51.400;5.494;2022-11-27T18:40:15;101173.69;;;6.07;100.00
47897;BME280;39629;51.400;5.494;2022-11-27T18:45:19;101170.19;;;6.08;100.00
47897;BME280;39629;51.400;5.494;2022-11-27T18:50:21;101164.97;;;6.08;100.00
47897;BME280;39629;51.400;5.494;2022-11-27T18:55:23;101157.97;;;6.05;100.00
47897;BME280;39629;51.400;5.494;2022-11-27T19:00:26;101171.81;;;6.01;100.00
47897;BME280;39629;51.400;5.494;2022-11-27T19:05:27;101160.50;;;6.02;100.00
47897;BME280;39629;51.400;5.494;2022-11-27T19:10:29;101150.00;;;5.99;100.00
47897;BME280;39629;51.400;5.494;2022-11-27T19:15:33;101139.59;;;6.02;100.00
47897;BME280;39629;51.400;5.494;2022-11-27T19:20:35;101137.00;;;6.04;100.00
47897;BME280;39629;51.400;5.494;2022-11-27T19:25:37;101135.28;;;6.03;100.00
47897;BME280;39629;51.400;5.494;2022-11-27T19:30:42;101130.84;;;6.00;100.00
47897;BME280;39629;51.400;5.494;2022-11-27T19:35:44;101132.53;;;5.98;100.00
47897;BME280;39629;51.400;5.494;2022-11-27T19:40:45;101118.53;;;5.93;100.00
47897;BME280;39629;51.400;5.494;2022-11-27T19:45:48;101111.53;;;5.92;100.00
47897;BME280;39629;51.400;5.494;2022-11-27T19:50:50;101094.91;;;5.88;100.00
47897;BME280;39629;51.400;5.494;2022-11-27T19:55:53;101096.66;;;5.88;100.00
47897;BME280;39629;51.400;5.494;2022-11-27T20:01:03;101082.66;;;5.86;100.00
47897;BME280;39629;51.400;5.494;2022-11-27T20:06:07;101078.22;;;5.82;100.00
47897;BME280;39629;51.400;5.494;2022-11-27T20:11:11;101071.31;;;5.84;100.00
47897;BME280;39629;51.400;5.494;2022-11-27T20:16:16;101050.38;;;5.81;100.00
47897;BME280;39629;51.400;5.494;2022-11-27T20:21:20;101051.25;;;5.83;100.00
47897;BME280;39629;51.400;5.494;2022-11-27T20:26:24;101039.91;;;5.81;100.00
47897;BME280;39629;51.400;5.494;2022-11-27T20:31:30;101033.78;;;5.80;100.00
47897;BME280;39629;51.400;5.494;2022-11-27T20:36:34;101038.19;;;5.83;100.00
47897;BME280;39629;51.400;5.494;2022-11-27T20:41:38;101033.81;;;5.82;100.00
47897;BME280;39629;51.400;5.494;2022-11-27T20:46:41;101034.72;;;5.82;100.00
47897;BME280;39629;51.400;5.494;2022-11-27T20:51:42;101028.59;;;5.82;100.00
47897;BME280;39629;51.400;5.494;2022-11-27T20:56:48;101012.94;;;5.82;100.00
47897;BME280;39629;51.400;5.494;2022-11-27T21:01:51;101009.47;;;5.83;100.00
47897;BME280;39629;51.400;5.494;2022-11-27T21:06:56;100995.59;;;5.85;100.00
47897;BME280;39629;51.400;5.494;2022-11-27T21:11:57;101001.78;;;5.89;100.00
47897;BME280;39629;51.400;5.494;2022-11-27T21:17:01;100997.38;;;5.88;100.00
47897;BME280;39629;51.400;5.494;2022-11-27T21:22:03;100980.88;;;5.89;100.00
47897;BME280;39629;51.400;5.494;2022-11-27T21:27:04;100980.94;;;5.92;100.00
47897;BME280;39629;51.400;5.494;2022-11-27T21:32:07;100958.28;;;5.92;100.00
47897;BME280;39629;51.400;5.494;2022-11-27T21:37:09;100967.03;;;5.94;100.00
47897;BME280;39629;51.400;5.494;2022-11-27T21:42:11;100943.50;;;5.93;100.00
47897;BME280;39629;51.400;5.494;2022-11-27T21:47:14;100956.66;;;5.99;100.00
47897;BME280;39629;51.400;5.494;2022-11-27T21:52:16;100948.81;;;5.99;100.00
47897;BME280;39629;51.400;5.494;2022-11-27T21:57:18;100939.31;;;6.03;100.00
47897;BME280;39629;51.400;5.494;2022-11-27T22:02:21;100905.34;;;6.01;100.00
47897;BME280;39629;51.400;5.494;2022-11-27T22:07:22;100912.38;;;6.05;100.00
47897;BME280;39629;51.400;5.494;2022-11-27T22:12:24;100908.13;;;6.13;100.00
47897;BME280;39629;51.400;5.494;2022-11-27T22:17:27;100915.06;;;6.11;100.00
47897;BME280;39629;51.400;5.494;2022-11-27T22:22:29;100895.97;;;6.16;100.00
47897;BME280;39629;51.400;5.494;2022-11-27T22:27:30;100897.69;;;6.13;100.00
47897;BME280;39629;51.400;5.494;2022-11-27T22:32:33;100907.31;;;6.18;100.00
47897;BME280;39629;51.400;5.494;2022-11-27T22:37:35;100904.72;;;6.18;100.00
47897;BME280;39629;51.400;5.494;2022-11-27T22:42:37;100881.28;;;6.21;100.00
47897;BME280;39629;51.400;5.494;2022-11-27T22:47:41;100887.38;;;6.23;100.00
47897;BME280;39629;51.400;5.494;2022-11-27T22:52:43;100877.84;;;6.23;100.00
47897;BME280;39629;51.400;5.494;2022-11-27T22:57:44;100878.72;;;6.27;100.00
47897;BME280;39629;51.400;5.494;2022-11-27T23:02:47;100878.78;;;6.30;100.00
47897;BME280;39629;51.400;5.494;2022-11-27T23:07:49;100875.28;;;6.28;100.00
47897;BME280;39629;51.400;5.494;2022-11-27T23:12:51;100863.97;;;6.29;100.00
47897;BME280;39629;51.400;5.494;2022-11-27T23:17:54;100872.69;;;6.29;100.00
47897;BME280;39629;51.400;5.494;2022-11-27T23:22:57;100865.78;;;6.35;100.00
47897;BME280;39629;51.400;5.494;2022-11-27T23:27:59;100865.84;;;6.38;100.00
47897;BME280;39629;51.400;5.494;2022-11-27T23:33:02;100865.00;;;6.40;100.00
47897;BME280;39629;51.400;5.494;2022-11-27T23:38:03;100858.03;;;6.41;100.00
47897;BME280;39629;51.400;5.494;2022-11-27T23:43:05;100856.47;;;6.51;100.00
47897;BME280;39629;51.400;5.494;2022-11-27T23:48:08;100843.50;;;6.58;100.00
47897;BME280;39629;51.400;5.494;2022-11-27T23:53:09;100842.69;;;6.64;100.00
47897;BME280;39629;51.400;5.494;2022-11-27T23:58:11;100841.06;;;6.71;100.00
